sensor_id;sensor_type;location;lat;lon;timestamp;P1;durP1;ratioP1;P2;durP2;ratioP2
12412;SDS011;13877;18.896;-99.222;2022-09-14T00:01:27;22.73;;;14.90;;
12412;SDS011;13877;18.896;-99.222;2022-09-14T00:03:57;18.52;;;13.43;;
12412;SDS011;13877;18.896;-99.222;2022-09-14T00:06:26;18.10;;;14.20;;
12412;SDS011;13877;18.896;-99.222;2022-09-14T00:08:54;23.10;;;13.30;;
12412;SDS011;13877;18.896;-99.222;2022-09-14T00:11:24;21.40;;;14.00;;
12412;SDS011;13877;18.896;-99.222;2022-09-14T00:13:52;19.73;;;14.10;;
12412;SDS011;13877;18.896;-99.222;2022-09-14T00:16:20;20.65;;;14.23;;
12412;SDS011;13877;18.896;-99.222;2022-09-14T00:18:52;21.98;;;13.82;;
12412;SDS011;13877;18.896;-99.222;2022-09-14T00:21:21;25.63;;;14.30;;
12412;SDS011;13877;18.896;-99.222;2022-09-14T00:23:49;20.80;;;14.70;;
12412;SDS011;13877;18.896;-99.222;2022-09-14T00:26:17;19.73;;;14.45;;
12412;SDS011;13877;18.896;-99.222;2022-09-14T00:28:52;18.90;;;14.20;;
12412;SDS011;13877;18.896;-99.222;2022-09-14T00:31:21;18.00;;;13.40;;
12412;SDS011;13877;18.896;-99.222;2022-09-14T00:33:49;22.52;;;14.88;;
12412;SDS011;13877;18.896;-99.222;2022-09-14T00:36:19;23.58;;;14.18;;
12412;SDS011;13877;18.896;-99.222;2022-09-14T00:38:47;21.85;;;14.77;;
12412;SDS011;13877;18.896;-99.222;2022-09-14T00:41:19;22.65;;;14.43;;
12412;SDS011;13877;18.896;-99.222;2022-09-14T00:46:47;20.05;;;15.32;;
12412;SDS011;13877;18.896;-99.222;2022-09-14T00:49:24;26.13;;;16.42;;
12412;SDS011;13877;18.896;-99.222;2022-09-14T00:54:49;21.40;;;14.88;;
12412;SDS011;13877;18.896;-99.222;2022-09-14T00:57:39;24.80;;;15.55;;
12412;SDS011;13877;18.896;-99.222;2022-09-14T01:00:10;21.42;;;15.43;;
12412;SDS011;13877;18.896;-99.222;2022-09-14T01:02:39;23.55;;;14.85;;
12412;SDS011;13877;18.896;-99.222;2022-09-14T01:05:06;21.23;;;15.52;;
12412;SDS011;13877;18.896;-99.222;2022-09-14T01:19:03;23.77;;;15.18;;
12412;SDS011;13877;18.896;-99.222;2022-09-14T01:21:36;30.92;;;15.55;;
12412;SDS011;13877;18.896;-99.222;2022-09-14T01:37:32;27.07;;;15.70;;
12412;SDS011;13877;18.896;-99.222;2022-09-14T01:40:31;25.80;;;15.70;;
12412;SDS011;13877;18.896;-99.222;2022-09-14T01:43:53;31.55;;;17.15;;
12412;SDS011;13877;18.896;-99.222;2022-09-14T01:46:13;26.85;;;16.35;;
12412;SDS011;13877;18.896;-99.222;2022-09-14T01:49:03;25.73;;;17.40;;
12412;SDS011;13877;18.896;-99.222;2022-09-14T01:51:57;31.27;;;17.67;;
12412;SDS011;13877;18.896;-99.222;2022-09-14T01:57:11;33.60;;;18.38;;
12412;SDS011;13877;18.896;-99.222;2022-09-14T01:59:53;30.20;;;19.00;;
12412;SDS011;13877;18.896;-99.222;2022-09-14T02:02:28;30.90;;;19.60;;
12412;SDS011;13877;18.896;-99.222;2022-09-14T02:07:35;30.53;;;20.20;;
12412;SDS011;13877;18.896;-99.222;2022-09-14T02:10:03;35.08;;;20.92;;
12412;SDS011;13877;18.896;-99.222;2022-09-14T02:12:34;34.42;;;20.52;;
12412;SDS011;13877;18.896;-99.222;2022-09-14T02:15:01;31.35;;;20.55;;
12412;SDS011;13877;18.896;-99.222;2022-09-14T02:17:29;35.47;;;23.23;;
12412;SDS011;13877;18.896;-99.222;2022-09-14T02:19:57;30.00;;;21.50;;
12412;SDS011;13877;18.896;-99.222;2022-09-14T02:22:27;30.98;;;21.48;;
12412;SDS011;13877;18.896;-99.222;2022-09-14T02:24:55;31.63;;;21.40;;
12412;SDS011;13877;18.896;-99.222;2022-09-14T02:27:23;34.85;;;21.42;;
12412;SDS011;13877;18.896;-99.222;2022-09-14T02:29:50;31.17;;;20.50;;
12412;SDS011;13877;18.896;-99.222;2022-09-14T02:35:14;32.50;;;21.33;;
12412;SDS011;13877;18.896;-99.222;2022-09-14T02:46:13;41.85;;;24.38;;
12412;SDS011;13877;18.896;-99.222;2022-09-14T02:54:03;35.90;;;24.55;;
12412;SDS011;13877;18.896;-99.222;2022-09-14T02:56:44;37.10;;;24.98;;
12412;SDS011;13877;18.896;-99.222;2022-09-14T02:59:12;37.00;;;24.27;;
12412;SDS011;13877;18.896;-99.222;2022-09-14T03:01:39;37.05;;;25.88;;
12412;SDS011;13877;18.896;-99.222;2022-09-14T03:04:06;34.67;;;23.90;;
12412;SDS011;13877;18.896;-99.222;2022-09-14T03:06:33;39.05;;;23.27;;
12412;SDS011;13877;18.896;-99.222;2022-09-14T03:09:00;35.30;;;23.02;;
12412;SDS011;13877;18.896;-99.222;2022-09-14T03:11:28;34.10;;;22.58;;
12412;SDS011;13877;18.896;-99.222;2022-09-14T03:13:54;33.70;;;22.60;;
12412;SDS011;13877;18.896;-99.222;2022-09-14T03:16:21;36.75;;;23.73;;
12412;SDS011;13877;18.896;-99.222;2022-09-14T03:18:48;39.58;;;24.77;;
12412;SDS011;13877;18.896;-99.222;2022-09-14T03:21:15;34.95;;;23.90;;
12412;SDS011;13877;18.896;-99.222;2022-09-14T03:23:46;35.15;;;23.52;;
12412;SDS011;13877;18.896;-99.222;2022-09-14T03:26:21;50.28;;;27.60;;
12412;SDS011;13877;18.896;-99.222;2022-09-14T03:28:50;40.70;;;27.05;;
12412;SDS011;13877;18.896;-99.222;2022-09-14T03:31:18;40.28;;;26.60;;
12412;SDS011;13877;18.896;-99.222;2022-09-14T03:33:46;36.78;;;24.65;;
12412;SDS011;13877;18.896;-99.222;2022-09-14T03:36:18;38.22;;;23.52;;
12412;SDS011;13877;18.896;-99.222;2022-09-14T03:38:47;36.75;;;22.60;;
12412;SDS011;13877;18.896;-99.222;2022-09-14T03:41:16;33.50;;;20.90;;
12412;SDS011;13877;18.896;-99.222;2022-09-14T03:43:44;32.80;;;19.85;;
12412;SDS011;13877;18.896;-99.222;2022-09-14T03:46:18;30.60;;;21.20;;
12412;SDS011;13877;18.896;-99.222;2022-09-14T03:48:46;29.48;;;18.88;;
12412;SDS011;13877;18.896;-99.222;2022-09-14T03:51:14;29.88;;;18.73;;
12412;SDS011;13877;18.896;-99.222;2022-09-14T03:53:42;26.85;;;16.15;;
12412;SDS011;13877;18.896;-99.222;2022-09-14T03:56:11;23.35;;;16.58;;
12412;SDS011;13877;18.896;-99.222;2022-09-14T03:58:41;23.23;;;15.73;;
12412;SDS011;13877;18.896;-99.222;2022-09-14T04:01:10;26.10;;;16.00;;
12412;SDS011;13877;18.896;-99.222;2022-09-14T04:03:39;25.48;;;15.02;;
12412;SDS011;13877;18.896;-99.222;2022-09-14T04:06:06;32.67;;;18.95;;
12412;SDS011;13877;18.896;-99.222;2022-09-14T04:08:35;37.75;;;21.98;;
12412;SDS011;13877;18.896;-99.222;2022-09-14T04:11:14;33.97;;;22.17;;
12412;SDS011;13877;18.896;-99.222;2022-09-14T04:13:43;34.15;;;23.20;;
12412;SDS011;13877;18.896;-99.222;2022-09-14T04:16:10;35.97;;;24.05;;
12412;SDS011;13877;18.896;-99.222;2022-09-14T04:18:38;35.33;;;22.90;;
12412;SDS011;13877;18.896;-99.222;2022-09-14T04:21:06;39.47;;;22.55;;
12412;SDS011;13877;18.896;-99.222;2022-09-14T04:23:36;43.00;;;23.42;;
12412;SDS011;13877;18.896;-99.222;2022-09-14T04:26:08;41.53;;;24.63;;
12412;SDS011;13877;18.896;-99.222;2022-09-14T04:28:40;41.83;;;24.38;;
12412;SDS011;13877;18.896;-99.222;2022-09-14T04:31:07;40.65;;;24.35;;
12412;SDS011;13877;18.896;-99.222;2022-09-14T04:33:37;40.28;;;24.90;;
12412;SDS011;13877;18.896;-99.222;2022-09-14T04:36:06;41.20;;;25.08;;
12412;SDS011;13877;18.896;-99.222;2022-09-14T04:38:39;40.78;;;23.08;;
12412;SDS011;13877;18.896;-99.222;2022-09-14T04:41:11;33.95;;;21.48;;
12412;SDS011;13877;18.896;-99.222;2022-09-14T04:43:42;32.05;;;20.80;;
12412;SDS011;13877;18.896;-99.222;2022-09-14T04:46:11;33.35;;;21.55;;
12412;SDS011;13877;18.896;-99.222;2022-09-14T04:48:40;33.17;;;21.48;;
12412;SDS011;13877;18.896;-99.222;2022-09-14T04:51:08;30.52;;;20.35;;
12412;SDS011;13877;18.896;-99.222;2022-09-14T04:53:47;33.30;;;20.30;;
12412;SDS011;13877;18.896;-99.222;2022-09-14T04:56:16;30.98;;;18.20;;
12412;SDS011;13877;18.896;-99.222;2022-09-14T04:58:45;27.83;;;17.55;;
12412;SDS011;13877;18.896;-99.222;2022-09-14T05:01:15;27.63;;;18.08;;
12412;SDS011;13877;18.896;-99.222;2022-09-14T05:03:43;25.75;;;15.35;;
12412;SDS011;13877;18.896;-99.222;2022-09-14T05:06:12;25.08;;;16.23;;
12412;SDS011;13877;18.896;-99.222;2022-09-14T05:08:41;29.02;;;15.77;;
12412;SDS011;13877;18.896;-99.222;2022-09-14T05:11:11;23.38;;;15.10;;
12412;SDS011;13877;18.896;-99.222;2022-09-14T05:13:39;19.50;;;14.40;;
12412;SDS011;13877;18.896;-99.222;2022-09-14T05:16:06;23.05;;;15.65;;
12412;SDS011;13877;18.896;-99.222;2022-09-14T05:18:40;20.45;;;14.32;;
12412;SDS011;13877;18.896;-99.222;2022-09-14T05:21:09;25.40;;;15.10;;
12412;SDS011;13877;18.896;-99.222;2022-09-14T05:23:37;22.92;;;15.55;;
12412;SDS011;13877;18.896;-99.222;2022-09-14T05:26:04;25.95;;;16.45;;
12412;SDS011;13877;18.896;-99.222;2022-09-14T05:28:32;26.88;;;17.02;;
12412;SDS011;13877;18.896;-99.222;2022-09-14T05:31:03;28.67;;;17.15;;
12412;SDS011;13877;18.896;-99.222;2022-09-14T05:33:31;25.60;;;16.70;;
12412;SDS011;13877;18.896;-99.222;2022-09-14T05:36:03;25.52;;;16.80;;
12412;SDS011;13877;18.896;-99.222;2022-09-14T05:38:32;23.17;;;16.20;;
12412;SDS011;13877;18.896;-99.222;2022-09-14T05:41:00;24.45;;;16.77;;
12412;SDS011;13877;18.896;-99.222;2022-09-14T05:43:29;24.95;;;16.65;;
12412;SDS011;13877;18.896;-99.222;2022-09-14T05:45:59;25.60;;;16.40;;
12412;SDS011;13877;18.896;-99.222;2022-09-14T05:48:31;25.58;;;15.52;;
12412;SDS011;13877;18.896;-99.222;2022-09-14T05:51:00;25.65;;;16.70;;
12412;SDS011;13877;18.896;-99.222;2022-09-14T05:53:29;24.30;;;16.23;;
12412;SDS011;13877;18.896;-99.222;2022-09-14T05:56:04;25.88;;;15.82;;
12412;SDS011;13877;18.896;-99.222;2022-09-14T05:58:32;28.75;;;16.33;;
12412;SDS011;13877;18.896;-99.222;2022-09-14T06:01:10;28.20;;;16.45;;
12412;SDS011;13877;18.896;-99.222;2022-09-14T06:03:42;26.00;;;16.25;;
12412;SDS011;13877;18.896;-99.222;2022-09-14T06:06:10;25.75;;;14.95;;
12412;SDS011;13877;18.896;-99.222;2022-09-14T06:08:39;22.80;;;13.82;;
12412;SDS011;13877;18.896;-99.222;2022-09-14T06:11:06;23.67;;;13.80;;
12412;SDS011;13877;18.896;-99.222;2022-09-14T06:16:04;29.65;;;13.88;;
12412;SDS011;13877;18.896;-99.222;2022-09-14T06:18:39;19.10;;;12.95;;
12412;SDS011;13877;18.896;-99.222;2022-09-14T06:21:07;20.75;;;12.95;;
12412;SDS011;13877;18.896;-99.222;2022-09-14T06:23:35;21.55;;;13.93;;
12412;SDS011;13877;18.896;-99.222;2022-09-14T06:26:03;20.33;;;14.30;;
12412;SDS011;13877;18.896;-99.222;2022-09-14T06:28:31;23.98;;;14.85;;
12412;SDS011;13877;18.896;-99.222;2022-09-14T06:31:01;25.20;;;16.77;;
12412;SDS011;13877;18.896;-99.222;2022-09-14T06:33:30;23.23;;;16.33;;
12412;SDS011;13877;18.896;-99.222;2022-09-14T06:35:57;29.80;;;17.95;;
12412;SDS011;13877;18.896;-99.222;2022-09-14T06:38:29;26.60;;;18.30;;
12412;SDS011;13877;18.896;-99.222;2022-09-14T06:40:57;22.77;;;16.25;;
12412;SDS011;13877;18.896;-99.222;2022-09-14T06:43:27;26.63;;;16.63;;
12412;SDS011;13877;18.896;-99.222;2022-09-14T06:45:59;27.90;;;17.63;;
12412;SDS011;13877;18.896;-99.222;2022-09-14T06:48:36;27.63;;;16.83;;
12412;SDS011;13877;18.896;-99.222;2022-09-14T06:51:22;28.58;;;17.33;;
12412;SDS011;13877;18.896;-99.222;2022-09-14T06:53:51;28.27;;;16.77;;
12412;SDS011;13877;18.896;-99.222;2022-09-14T06:56:18;27.75;;;17.63;;
12412;SDS011;13877;18.896;-99.222;2022-09-14T06:58:45;24.48;;;15.57;;
12412;SDS011;13877;18.896;-99.222;2022-09-14T07:01:15;25.50;;;15.82;;
12412;SDS011;13877;18.896;-99.222;2022-09-14T07:03:44;30.75;;;16.73;;
12412;SDS011;13877;18.896;-99.222;2022-09-14T07:06:13;31.55;;;17.00;;
12412;SDS011;13877;18.896;-99.222;2022-09-14T07:08:43;25.67;;;16.40;;
12412;SDS011;13877;18.896;-99.222;2022-09-14T07:11:10;30.50;;;17.17;;
12412;SDS011;13877;18.896;-99.222;2022-09-14T07:13:39;25.67;;;15.70;;
12412;SDS011;13877;18.896;-99.222;2022-09-14T07:16:06;28.42;;;17.33;;
12412;SDS011;13877;18.896;-99.222;2022-09-14T07:18:33;28.65;;;16.10;;
12412;SDS011;13877;18.896;-99.222;2022-09-14T07:21:01;30.08;;;16.25;;
12412;SDS011;13877;18.896;-99.222;2022-09-14T07:23:34;27.65;;;16.85;;
12412;SDS011;13877;18.896;-99.222;2022-09-14T07:26:03;28.10;;;16.60;;
12412;SDS011;13877;18.896;-99.222;2022-09-14T07:28:40;26.52;;;16.08;;
12412;SDS011;13877;18.896;-99.222;2022-09-14T07:31:18;32.63;;;17.50;;
12412;SDS011;13877;18.896;-99.222;2022-09-14T07:33:47;32.47;;;16.98;;
12412;SDS011;13877;18.896;-99.222;2022-09-14T07:36:18;30.15;;;18.02;;
12412;SDS011;13877;18.896;-99.222;2022-09-14T07:38:45;33.55;;;19.50;;
12412;SDS011;13877;18.896;-99.222;2022-09-14T07:41:12;37.33;;;19.70;;
12412;SDS011;13877;18.896;-99.222;2022-09-14T07:43:39;32.03;;;18.65;;
12412;SDS011;13877;18.896;-99.222;2022-09-14T07:46:06;36.97;;;20.38;;
12412;SDS011;13877;18.896;-99.222;2022-09-14T07:48:33;29.50;;;18.35;;
12412;SDS011;13877;18.896;-99.222;2022-09-14T07:51:02;30.75;;;18.75;;
12412;SDS011;13877;18.896;-99.222;2022-09-14T07:53:31;30.40;;;17.98;;
12412;SDS011;13877;18.896;-99.222;2022-09-14T07:56:04;34.63;;;17.98;;
12412;SDS011;13877;18.896;-99.222;2022-09-14T07:58:32;30.55;;;18.02;;
12412;SDS011;13877;18.896;-99.222;2022-09-14T08:01:03;34.53;;;18.90;;
12412;SDS011;13877;18.896;-99.222;2022-09-14T08:03:37;33.55;;;18.80;;
12412;SDS011;13877;18.896;-99.222;2022-09-14T08:06:06;40.33;;;20.52;;
12412;SDS011;13877;18.896;-99.222;2022-09-14T08:08:36;31.55;;;18.02;;
12412;SDS011;13877;18.896;-99.222;2022-09-14T08:11:05;42.92;;;20.33;;
12412;SDS011;13877;18.896;-99.222;2022-09-14T08:13:36;39.13;;;21.50;;
12412;SDS011;13877;18.896;-99.222;2022-09-14T08:16:05;38.10;;;21.58;;
12412;SDS011;13877;18.896;-99.222;2022-09-14T08:18:32;37.63;;;21.25;;
12412;SDS011;13877;18.896;-99.222;2022-09-14T08:21:07;36.20;;;19.80;;
12412;SDS011;13877;18.896;-99.222;2022-09-14T08:23:36;36.72;;;20.45;;
12412;SDS011;13877;18.896;-99.222;2022-09-14T08:26:04;35.10;;;18.70;;
12412;SDS011;13877;18.896;-99.222;2022-09-14T08:28:33;34.33;;;19.77;;
12412;SDS011;13877;18.896;-99.222;2022-09-14T08:31:04;39.63;;;19.13;;
12412;SDS011;13877;18.896;-99.222;2022-09-14T08:33:33;39.17;;;19.65;;
12412;SDS011;13877;18.896;-99.222;2022-09-14T08:36:00;32.58;;;19.35;;
12412;SDS011;13877;18.896;-99.222;2022-09-14T08:38:28;42.00;;;20.90;;
12412;SDS011;13877;18.896;-99.222;2022-09-14T08:40:55;44.83;;;21.48;;
12412;SDS011;13877;18.896;-99.222;2022-09-14T08:43:24;44.35;;;21.20;;
12412;SDS011;13877;18.896;-99.222;2022-09-14T08:45:53;42.92;;;22.33;;
12412;SDS011;13877;18.896;-99.222;2022-09-14T08:48:30;41.33;;;22.33;;
12412;SDS011;13877;18.896;-99.222;2022-09-14T08:51:00;50.13;;;23.50;;
12412;SDS011;13877;18.896;-99.222;2022-09-14T08:53:30;43.58;;;21.65;;
12412;SDS011;13877;18.896;-99.222;2022-09-14T08:56:07;47.78;;;23.48;;
12412;SDS011;13877;18.896;-99.222;2022-09-14T09:01:53;48.08;;;24.67;;
12412;SDS011;13877;18.896;-99.222;2022-09-14T09:07:33;45.97;;;23.58;;
12412;SDS011;13877;18.896;-99.222;2022-09-14T09:10:07;41.45;;;22.80;;
12412;SDS011;13877;18.896;-99.222;2022-09-14T09:12:38;49.90;;;24.35;;
12412;SDS011;13877;18.896;-99.222;2022-09-14T09:18:12;56.80;;;26.35;;
12412;SDS011;13877;18.896;-99.222;2022-09-14T09:20:45;57.20;;;26.02;;
12412;SDS011;13877;18.896;-99.222;2022-09-14T09:23:18;48.63;;;26.13;;
12412;SDS011;13877;18.896;-99.222;2022-09-14T09:26:05;49.63;;;25.08;;
12412;SDS011;13877;18.896;-99.222;2022-09-14T09:28:43;48.92;;;25.48;;
12412;SDS011;13877;18.896;-99.222;2022-09-14T09:31:12;49.42;;;24.90;;
12412;SDS011;13877;18.896;-99.222;2022-09-14T09:34:04;54.72;;;26.65;;
12412;SDS011;13877;18.896;-99.222;2022-09-14T09:36:33;56.40;;;27.88;;
12412;SDS011;13877;18.896;-99.222;2022-09-14T09:39:02;59.72;;;30.45;;
12412;SDS011;13877;18.896;-99.222;2022-09-14T09:41:30;59.58;;;32.00;;
12412;SDS011;13877;18.896;-99.222;2022-09-14T09:44:09;60.80;;;30.70;;
12412;SDS011;13877;18.896;-99.222;2022-09-14T09:46:37;58.05;;;32.25;;
12412;SDS011;13877;18.896;-99.222;2022-09-14T09:49:22;63.17;;;30.48;;
12412;SDS011;13877;18.896;-99.222;2022-09-14T09:51:53;63.45;;;32.03;;
12412;SDS011;13877;18.896;-99.222;2022-09-14T09:54:25;65.32;;;34.10;;
12412;SDS011;13877;18.896;-99.222;2022-09-14T09:57:05;64.88;;;32.83;;
12412;SDS011;13877;18.896;-99.222;2022-09-14T09:59:52;68.47;;;34.22;;
12412;SDS011;13877;18.896;-99.222;2022-09-14T10:02:38;68.57;;;32.65;;
12412;SDS011;13877;18.896;-99.222;2022-09-14T10:07:38;70.38;;;35.38;;
12412;SDS011;13877;18.896;-99.222;2022-09-14T10:10:10;69.43;;;33.58;;
12412;SDS011;13877;18.896;-99.222;2022-09-14T10:12:46;64.43;;;33.90;;
12412;SDS011;13877;18.896;-99.222;2022-09-14T10:15:29;60.83;;;32.15;;
12412;SDS011;13877;18.896;-99.222;2022-09-14T10:18:10;57.67;;;31.88;;
12412;SDS011;13877;18.896;-99.222;2022-09-14T10:25:46;59.83;;;33.65;;
12412;SDS011;13877;18.896;-99.222;2022-09-14T10:28:19;58.22;;;30.55;;
12412;SDS011;13877;18.896;-99.222;2022-09-14T10:33:33;62.63;;;33.17;;
12412;SDS011;13877;18.896;-99.222;2022-09-14T10:36:09;59.78;;;33.45;;
12412;SDS011;13877;18.896;-99.222;2022-09-14T10:38:57;70.60;;;35.92;;
12412;SDS011;13877;18.896;-99.222;2022-09-14T10:47:14;80.50;;;38.33;;
12412;SDS011;13877;18.896;-99.222;2022-09-14T11:01:24;102.63;;;45.70;;
12412;SDS011;13877;18.896;-99.222;2022-09-14T11:06:53;115.38;;;46.53;;
12412;SDS011;13877;18.896;-99.222;2022-09-14T11:18:19;118.57;;;46.28;;
12412;SDS011;13877;18.896;-99.222;2022-09-14T11:23:39;117.95;;;47.00;;
12412;SDS011;13877;18.896;-99.222;2022-09-14T11:26:39;121.78;;;50.28;;
12412;SDS011;13877;18.896;-99.222;2022-09-14T11:32:08;110.53;;;45.42;;
12412;SDS011;13877;18.896;-99.222;2022-09-14T11:35:10;92.18;;;42.65;;
12412;SDS011;13877;18.896;-99.222;2022-09-14T11:37:54;97.78;;;42.75;;
12412;SDS011;13877;18.896;-99.222;2022-09-14T11:40:39;85.35;;;37.97;;
12412;SDS011;13877;18.896;-99.222;2022-09-14T11:43:20;78.68;;;37.25;;
12412;SDS011;13877;18.896;-99.222;2022-09-14T11:46:04;89.88;;;39.75;;
12412;SDS011;13877;18.896;-99.222;2022-09-14T11:48:38;83.00;;;37.35;;
12412;SDS011;13877;18.896;-99.222;2022-09-14T11:54:22;99.20;;;41.97;;
12412;SDS011;13877;18.896;-99.222;2022-09-14T11:56:55;98.50;;;44.05;;
12412;SDS011;13877;18.896;-99.222;2022-09-14T11:59:35;102.30;;;44.15;;
12412;SDS011;13877;18.896;-99.222;2022-09-14T12:15:37;120.88;;;47.95;;
12412;SDS011;13877;18.896;-99.222;2022-09-14T12:36:07;132.13;;;53.10;;
12412;SDS011;13877;18.896;-99.222;2022-09-14T12:44:32;137.20;;;52.83;;
12412;SDS011;13877;18.896;-99.222;2022-09-14T12:49:56;137.77;;;55.25;;
12412;SDS011;13877;18.896;-99.222;2022-09-14T12:55:33;113.95;;;47.80;;
12412;SDS011;13877;18.896;-99.222;2022-09-14T13:04:01;95.90;;;43.83;;
12412;SDS011;13877;18.896;-99.222;2022-09-14T13:06:33;104.05;;;44.53;;
12412;SDS011;13877;18.896;-99.222;2022-09-14T13:09:06;101.32;;;44.92;;
12412;SDS011;13877;18.896;-99.222;2022-09-14T13:11:45;104.90;;;43.05;;
12412;SDS011;13877;18.896;-99.222;2022-09-14T13:14:18;82.95;;;38.88;;
12412;SDS011;13877;18.896;-99.222;2022-09-14T13:16:48;79.25;;;37.58;;
12412;SDS011;13877;18.896;-99.222;2022-09-14T13:19:26;80.95;;;38.70;;
12412;SDS011;13877;18.896;-99.222;2022-09-14T13:21:57;79.55;;;38.13;;
12412;SDS011;13877;18.896;-99.222;2022-09-14T13:24:34;70.70;;;33.58;;
12412;SDS011;13877;18.896;-99.222;2022-09-14T13:27:13;63.97;;;32.50;;
12412;SDS011;13877;18.896;-99.222;2022-09-14T13:30:03;61.47;;;31.17;;
12412;SDS011;13877;18.896;-99.222;2022-09-14T13:32:46;60.75;;;30.23;;
12412;SDS011;13877;18.896;-99.222;2022-09-14T13:35:26;43.95;;;26.02;;
12412;SDS011;13877;18.896;-99.222;2022-09-14T13:37:59;47.25;;;25.92;;
12412;SDS011;13877;18.896;-99.222;2022-09-14T13:43:06;45.50;;;27.25;;
12412;SDS011;13877;18.896;-99.222;2022-09-14T13:45:34;44.08;;;26.15;;
12412;SDS011;13877;18.896;-99.222;2022-09-14T13:48:02;40.20;;;24.85;;
12412;SDS011;13877;18.896;-99.222;2022-09-14T13:50:31;41.88;;;25.30;;
12412;SDS011;13877;18.896;-99.222;2022-09-14T13:52:59;38.90;;;24.35;;
12412;SDS011;13877;18.896;-99.222;2022-09-14T13:55:27;44.22;;;24.35;;
12412;SDS011;13877;18.896;-99.222;2022-09-14T14:00:51;43.67;;;25.98;;
12412;SDS011;13877;18.896;-99.222;2022-09-14T14:03:24;34.63;;;22.65;;
12412;SDS011;13877;18.896;-99.222;2022-09-14T14:08:50;38.60;;;22.60;;
12412;SDS011;13877;18.896;-99.222;2022-09-14T14:14:10;39.35;;;23.52;;
12412;SDS011;13877;18.896;-99.222;2022-09-14T14:19:29;36.13;;;22.25;;
12412;SDS011;13877;18.896;-99.222;2022-09-14T14:24:53;36.13;;;23.95;;
12412;SDS011;13877;18.896;-99.222;2022-09-14T14:29:54;35.80;;;24.35;;
12412;SDS011;13877;18.896;-99.222;2022-09-14T14:32:22;38.15;;;23.52;;
12412;SDS011;13877;18.896;-99.222;2022-09-14T14:34:50;40.90;;;25.00;;
12412;SDS011;13877;18.896;-99.222;2022-09-14T14:37:20;35.47;;;22.35;;
12412;SDS011;13877;18.896;-99.222;2022-09-14T14:39:47;44.05;;;23.23;;
12412;SDS011;13877;18.896;-99.222;2022-09-14T14:42:14;36.60;;;22.25;;
12412;SDS011;13877;18.896;-99.222;2022-09-14T14:44:42;33.55;;;20.23;;
12412;SDS011;13877;18.896;-99.222;2022-09-14T14:47:11;28.75;;;19.30;;
12412;SDS011;13877;18.896;-99.222;2022-09-14T14:49:39;30.75;;;18.35;;
12412;SDS011;13877;18.896;-99.222;2022-09-14T14:52:06;31.88;;;21.23;;
12412;SDS011;13877;18.896;-99.222;2022-09-14T14:54:34;31.42;;;20.08;;
12412;SDS011;13877;18.896;-99.222;2022-09-14T14:57:01;29.02;;;18.25;;
12412;SDS011;13877;18.896;-99.222;2022-09-14T14:59:28;25.48;;;17.48;;
12412;SDS011;13877;18.896;-99.222;2022-09-14T15:01:55;27.55;;;17.58;;
12412;SDS011;13877;18.896;-99.222;2022-09-14T15:04:24;28.42;;;17.00;;
12412;SDS011;13877;18.896;-99.222;2022-09-14T15:06:52;22.98;;;15.80;;
12412;SDS011;13877;18.896;-99.222;2022-09-14T15:09:24;19.00;;;14.00;;
12412;SDS011;13877;18.896;-99.222;2022-09-14T15:11:54;22.52;;;15.10;;
12412;SDS011;13877;18.896;-99.222;2022-09-14T15:14:22;24.60;;;14.30;;
12412;SDS011;13877;18.896;-99.222;2022-09-14T15:16:50;23.92;;;14.18;;
12412;SDS011;13877;18.896;-99.222;2022-09-14T15:19:19;27.58;;;15.35;;
12412;SDS011;13877;18.896;-99.222;2022-09-14T15:21:46;20.00;;;13.88;;
12412;SDS011;13877;18.896;-99.222;2022-09-14T15:24:13;24.83;;;15.23;;
12412;SDS011;13877;18.896;-99.222;2022-09-14T15:26:41;23.92;;;17.27;;
12412;SDS011;13877;18.896;-99.222;2022-09-14T15:29:08;26.25;;;16.85;;
12412;SDS011;13877;18.896;-99.222;2022-09-14T15:34:05;30.55;;;17.08;;
12412;SDS011;13877;18.896;-99.222;2022-09-14T15:41:30;32.35;;;18.88;;
12412;SDS011;13877;18.896;-99.222;2022-09-14T15:43:59;28.08;;;17.88;;
12412;SDS011;13877;18.896;-99.222;2022-09-14T15:46:29;27.00;;;17.75;;
12412;SDS011;13877;18.896;-99.222;2022-09-14T15:48:56;26.67;;;15.75;;
12412;SDS011;13877;18.896;-99.222;2022-09-14T15:51:24;25.15;;;16.88;;
12412;SDS011;13877;18.896;-99.222;2022-09-14T15:53:50;21.25;;;13.40;;
12412;SDS011;13877;18.896;-99.222;2022-09-14T15:56:18;20.85;;;13.27;;
12412;SDS011;13877;18.896;-99.222;2022-09-14T15:58:45;23.45;;;12.93;;
12412;SDS011;13877;18.896;-99.222;2022-09-14T16:01:13;21.25;;;15.45;;
12412;SDS011;13877;18.896;-99.222;2022-09-14T16:03:41;26.38;;;16.35;;
12412;SDS011;13877;18.896;-99.222;2022-09-14T16:06:09;28.95;;;17.67;;
12412;SDS011;13877;18.896;-99.222;2022-09-14T16:08:37;26.95;;;16.73;;
12412;SDS011;13877;18.896;-99.222;2022-09-14T16:11:05;25.70;;;16.80;;
12412;SDS011;13877;18.896;-99.222;2022-09-14T16:13:33;23.02;;;16.02;;
12412;SDS011;13877;18.896;-99.222;2022-09-14T16:16:01;22.08;;;13.63;;
12412;SDS011;13877;18.896;-99.222;2022-09-14T16:18:33;24.23;;;14.13;;
12412;SDS011;13877;18.896;-99.222;2022-09-14T16:21:10;23.08;;;15.10;;
12412;SDS011;13877;18.896;-99.222;2022-09-14T16:23:43;27.20;;;17.67;;
12412;SDS011;13877;18.896;-99.222;2022-09-14T16:26:13;27.25;;;19.38;;
12412;SDS011;13877;18.896;-99.222;2022-09-14T16:28:42;30.55;;;18.92;;
12412;SDS011;13877;18.896;-99.222;2022-09-14T16:31:21;27.88;;;18.85;;
12412;SDS011;13877;18.896;-99.222;2022-09-14T16:33:50;29.48;;;16.55;;
12412;SDS011;13877;18.896;-99.222;2022-09-14T16:36:20;25.15;;;16.73;;
12412;SDS011;13877;18.896;-99.222;2022-09-14T16:38:57;23.58;;;14.85;;
12412;SDS011;13877;18.896;-99.222;2022-09-14T16:41:26;21.10;;;14.00;;
12412;SDS011;13877;18.896;-99.222;2022-09-14T16:43:57;20.88;;;14.10;;
12412;SDS011;13877;18.896;-99.222;2022-09-14T16:46:27;18.23;;;12.00;;
12412;SDS011;13877;18.896;-99.222;2022-09-14T16:48:55;16.70;;;11.38;;
12412;SDS011;13877;18.896;-99.222;2022-09-14T16:51:24;19.60;;;12.15;;
12412;SDS011;13877;18.896;-99.222;2022-09-14T16:53:52;18.00;;;12.93;;
12412;SDS011;13877;18.896;-99.222;2022-09-14T16:56:20;19.73;;;13.80;;
12412;SDS011;13877;18.896;-99.222;2022-09-14T16:58:50;16.80;;;11.57;;
12412;SDS011;13877;18.896;-99.222;2022-09-14T17:01:22;23.35;;;13.27;;
12412;SDS011;13877;18.896;-99.222;2022-09-14T17:03:51;20.70;;;13.90;;
12412;SDS011;13877;18.896;-99.222;2022-09-14T17:06:21;18.17;;;11.82;;
12412;SDS011;13877;18.896;-99.222;2022-09-14T17:08:53;22.33;;;12.95;;
12412;SDS011;13877;18.896;-99.222;2022-09-14T17:11:22;14.93;;;10.77;;
12412;SDS011;13877;18.896;-99.222;2022-09-14T17:13:49;13.50;;;10.23;;
12412;SDS011;13877;18.896;-99.222;2022-09-14T17:16:18;16.10;;;11.15;;
12412;SDS011;13877;18.896;-99.222;2022-09-14T17:18:46;19.83;;;13.20;;
12412;SDS011;13877;18.896;-99.222;2022-09-14T17:21:19;20.92;;;13.70;;
12412;SDS011;13877;18.896;-99.222;2022-09-14T17:23:48;19.80;;;13.32;;
12412;SDS011;13877;18.896;-99.222;2022-09-14T17:26:16;18.10;;;13.07;;
12412;SDS011;13877;18.896;-99.222;2022-09-14T17:28:45;22.77;;;13.85;;